sensor_id;sensor_type;location;lat;lon;timestamp;P1;durP1;ratioP1;P2;durP2;ratioP2
62535;SDS011;63050;47.514;18.920;2023-01-23T00:01:53;9.90;;;5.90;;
62535;SDS011;63050;47.514;18.920;2023-01-23T00:06:54;7.70;;;5.90;;
62535;SDS011;63050;47.514;18.920;2023-01-23T00:11:55;7.20;;;5.00;;
62535;SDS011;63050;47.514;18.920;2023-01-23T00:16:56;6.80;;;4.90;;
62535;SDS011;63050;47.514;18.920;2023-01-23T00:21:58;10.70;;;4.60;;
62535;SDS011;63050;47.514;18.920;2023-01-23T00:27:00;5.90;;;4.30;;
62535;SDS011;63050;47.514;18.920;2023-01-23T00:32:01;6.30;;;4.20;;
62535;SDS011;63050;47.514;18.920;2023-01-23T00:37:02;5.70;;;4.10;;
62535;SDS011;63050;47.514;18.920;2023-01-23T00:42:03;6.60;;;4.20;;
62535;SDS011;63050;47.514;18.920;2023-01-23T00:47:05;6.90;;;3.80;;
62535;SDS011;63050;47.514;18.920;2023-01-23T00:52:06;5.80;;;3.90;;
62535;SDS011;63050;47.514;18.920;2023-01-23T00:57:07;4.50;;;3.60;;
62535;SDS011;63050;47.514;18.920;2023-01-23T01:02:08;5.30;;;3.70;;
62535;SDS011;63050;47.514;18.920;2023-01-23T01:07:09;5.40;;;4.00;;
62535;SDS011;63050;47.514;18.920;2023-01-23T01:12:10;4.80;;;3.60;;
62535;SDS011;63050;47.514;18.920;2023-01-23T01:17:11;5.20;;;3.20;;
62535;SDS011;63050;47.514;18.920;2023-01-23T01:22:12;4.70;;;3.40;;
62535;SDS011;63050;47.514;18.920;2023-01-23T01:27:13;4.40;;;3.20;;
62535;SDS011;63050;47.514;18.920;2023-01-23T01:32:14;5.00;;;3.60;;
62535;SDS011;63050;47.514;18.920;2023-01-23T01:37:15;6.00;;;3.60;;
62535;SDS011;63050;47.514;18.920;2023-01-23T01:42:16;5.80;;;3.30;;
62535;SDS011;63050;47.514;18.920;2023-01-23T01:47:17;7.30;;;3.70;;
62535;SDS011;63050;47.514;18.920;2023-01-23T01:52:18;5.80;;;4.00;;
62535;SDS011;63050;47.514;18.920;2023-01-23T01:57:23;6.70;;;3.70;;
62535;SDS011;63050;47.514;18.920;2023-01-23T02:02:27;5.30;;;3.20;;
62535;SDS011;63050;47.514;18.920;2023-01-23T02:07:33;6.80;;;3.40;;
62535;SDS011;63050;47.514;18.920;2023-01-23T02:12:37;4.20;;;2.80;;
62535;SDS011;63050;47.514;18.920;2023-01-23T02:17:39;3.90;;;3.00;;
62535;SDS011;63050;47.514;18.920;2023-01-23T02:27:53;5.20;;;2.80;;
62535;SDS011;63050;47.514;18.920;2023-01-23T02:33:05;4.20;;;2.70;;
62535;SDS011;63050;47.514;18.920;2023-01-23T02:38:07;3.70;;;2.50;;
62535;SDS011;63050;47.514;18.920;2023-01-23T02:43:12;4.30;;;2.60;;
62535;SDS011;63050;47.514;18.920;2023-01-23T02:48:20;4.50;;;2.80;;
62535;SDS011;63050;47.514;18.920;2023-01-23T02:53:21;4.00;;;2.70;;
62535;SDS011;63050;47.514;18.920;2023-01-23T02:58:25;3.80;;;3.00;;
62535;SDS011;63050;47.514;18.920;2023-01-23T03:04:02;4.90;;;3.10;;
62535;SDS011;63050;47.514;18.920;2023-01-23T03:09:07;4.40;;;2.60;;
62535;SDS011;63050;47.514;18.920;2023-01-23T03:14:11;4.50;;;3.10;;
62535;SDS011;63050;47.514;18.920;2023-01-23T03:19:14;4.00;;;2.40;;
62535;SDS011;63050;47.514;18.920;2023-01-23T03:24:16;4.80;;;2.80;;
62535;SDS011;63050;47.514;18.920;2023-01-23T03:29:21;4.10;;;2.50;;
62535;SDS011;63050;47.514;18.920;2023-01-23T03:34:43;3.70;;;2.30;;
62535;SDS011;63050;47.514;18.920;2023-01-23T03:39:44;3.80;;;2.40;;
62535;SDS011;63050;47.514;18.920;2023-01-23T03:45:05;3.30;;;2.20;;
62535;SDS011;63050;47.514;18.920;2023-01-23T03:50:08;3.50;;;2.40;;
62535;SDS011;63050;47.514;18.920;2023-01-23T03:55:10;3.70;;;2.40;;
62535;SDS011;63050;47.514;18.920;2023-01-23T04:00:12;4.20;;;2.70;;
62535;SDS011;63050;47.514;18.920;2023-01-23T04:10:19;4.90;;;2.60;;
62535;SDS011;63050;47.514;18.920;2023-01-23T04:15:23;4.00;;;2.50;;
62535;SDS011;63050;47.514;18.920;2023-01-23T04:20:26;3.80;;;2.20;;
62535;SDS011;63050;47.514;18.920;2023-01-23T04:25:27;3.60;;;2.50;;
62535;SDS011;63050;47.514;18.920;2023-01-23T04:30:29;4.30;;;2.30;;
62535;SDS011;63050;47.514;18.920;2023-01-23T04:35:31;3.90;;;2.30;;
62535;SDS011;63050;47.514;18.920;2023-01-23T04:40:32;3.70;;;2.40;;
62535;SDS011;63050;47.514;18.920;2023-01-23T04:45:33;3.80;;;2.50;;
62535;SDS011;63050;47.514;18.920;2023-01-23T04:50:57;3.70;;;2.50;;
62535;SDS011;63050;47.514;18.920;2023-01-23T04:55:59;4.30;;;2.40;;
62535;SDS011;63050;47.514;18.920;2023-01-23T05:01:01;3.30;;;2.20;;
62535;SDS011;63050;47.514;18.920;2023-01-23T05:06:06;4.00;;;2.70;;
62535;SDS011;63050;47.514;18.920;2023-01-23T05:11:07;5.60;;;2.70;;
62535;SDS011;63050;47.514;18.920;2023-01-23T05:16:08;3.50;;;2.20;;
62535;SDS011;63050;47.514;18.920;2023-01-23T05:21:27;4.00;;;2.30;;
62535;SDS011;63050;47.514;18.920;2023-01-23T05:26:28;4.40;;;2.50;;
62535;SDS011;63050;47.514;18.920;2023-01-23T05:31:29;4.20;;;2.60;;
62535;SDS011;63050;47.514;18.920;2023-01-23T05:37:02;3.30;;;2.50;;
62535;SDS011;63050;47.514;18.920;2023-01-23T05:42:04;4.10;;;2.20;;
62535;SDS011;63050;47.514;18.920;2023-01-23T05:47:25;5.50;;;2.40;;
62535;SDS011;63050;47.514;18.920;2023-01-23T05:52:28;2.90;;;2.20;;
62535;SDS011;63050;47.514;18.920;2023-01-23T05:57:29;3.70;;;2.20;;
62535;SDS011;63050;47.514;18.920;2023-01-23T06:02:48;3.40;;;2.40;;
62535;SDS011;63050;47.514;18.920;2023-01-23T06:07:58;3.40;;;2.30;;
62535;SDS011;63050;47.514;18.920;2023-01-23T06:12:59;3.60;;;2.50;;
62535;SDS011;63050;47.514;18.920;2023-01-23T06:18:00;4.50;;;2.40;;
62535;SDS011;63050;47.514;18.920;2023-01-23T06:23:01;3.20;;;2.20;;
62535;SDS011;63050;47.514;18.920;2023-01-23T06:28:02;3.60;;;2.50;;
62535;SDS011;63050;47.514;18.920;2023-01-23T06:33:04;5.00;;;2.40;;
62535;SDS011;63050;47.514;18.920;2023-01-23T06:38:10;3.70;;;1.90;;
62535;SDS011;63050;47.514;18.920;2023-01-23T06:43:11;4.60;;;2.50;;
62535;SDS011;63050;47.514;18.920;2023-01-23T06:48:12;3.50;;;2.30;;
62535;SDS011;63050;47.514;18.920;2023-01-23T06:53:14;3.40;;;2.30;;
62535;SDS011;63050;47.514;18.920;2023-01-23T06:58:17;5.40;;;2.70;;
62535;SDS011;63050;47.514;18.920;2023-01-23T07:03:18;4.80;;;2.40;;
62535;SDS011;63050;47.514;18.920;2023-01-23T07:08:19;4.20;;;2.60;;
62535;SDS011;63050;47.514;18.920;2023-01-23T07:13:20;6.60;;;2.50;;
62535;SDS011;63050;47.514;18.920;2023-01-23T07:18:23;4.00;;;2.50;;
62535;SDS011;63050;47.514;18.920;2023-01-23T07:23:28;3.20;;;2.40;;
62535;SDS011;63050;47.514;18.920;2023-01-23T07:28:29;3.60;;;2.40;;
62535;SDS011;63050;47.514;18.920;2023-01-23T07:33:30;4.20;;;2.80;;
62535;SDS011;63050;47.514;18.920;2023-01-23T07:38:31;7.10;;;3.00;;
62535;SDS011;63050;47.514;18.920;2023-01-23T07:43:32;5.50;;;2.90;;
62535;SDS011;63050;47.514;18.920;2023-01-23T07:48:34;5.10;;;3.20;;
62535;SDS011;63050;47.514;18.920;2023-01-23T07:53:36;4.30;;;3.40;;
62535;SDS011;63050;47.514;18.920;2023-01-23T07:58:37;5.50;;;3.60;;
62535;SDS011;63050;47.514;18.920;2023-01-23T08:03:38;5.50;;;4.00;;
62535;SDS011;63050;47.514;18.920;2023-01-23T08:08:39;7.00;;;3.40;;
62535;SDS011;63050;47.514;18.920;2023-01-23T08:13:40;6.50;;;3.40;;
62535;SDS011;63050;47.514;18.920;2023-01-23T08:18:41;4.50;;;3.60;;
62535;SDS011;63050;47.514;18.920;2023-01-23T08:23:42;4.40;;;3.10;;
62535;SDS011;63050;47.514;18.920;2023-01-23T08:28:44;5.80;;;3.30;;
62535;SDS011;63050;47.514;18.920;2023-01-23T08:33:45;5.10;;;3.50;;
62535;SDS011;63050;47.514;18.920;2023-01-23T08:38:46;11.80;;;4.40;;
62535;SDS011;63050;47.514;18.920;2023-01-23T08:43:48;5.90;;;3.60;;
62535;SDS011;63050;47.514;18.920;2023-01-23T08:48:50;5.60;;;3.70;;
62535;SDS011;63050;47.514;18.920;2023-01-23T08:53:51;6.10;;;3.60;;
62535;SDS011;63050;47.514;18.920;2023-01-23T08:58:52;6.20;;;3.80;;
62535;SDS011;63050;47.514;18.920;2023-01-23T09:03:53;6.20;;;3.60;;
62535;SDS011;63050;47.514;18.920;2023-01-23T09:08:56;7.50;;;3.60;;
62535;SDS011;63050;47.514;18.920;2023-01-23T09:13:57;5.20;;;3.80;;
62535;SDS011;63050;47.514;18.920;2023-01-23T09:18:58;5.10;;;3.40;;
62535;SDS011;63050;47.514;18.920;2023-01-23T09:23:59;8.20;;;3.20;;
62535;SDS011;63050;47.514;18.920;2023-01-23T09:29:00;5.20;;;3.70;;
62535;SDS011;63050;47.514;18.920;2023-01-23T09:34:01;5.90;;;3.50;;
62535;SDS011;63050;47.514;18.920;2023-01-23T09:39:03;5.10;;;3.20;;
62535;SDS011;63050;47.514;18.920;2023-01-23T09:49:10;6.20;;;4.20;;
62535;SDS011;63050;47.514;18.920;2023-01-23T09:54:29;7.90;;;4.10;;
62535;SDS011;63050;47.514;18.920;2023-01-23T09:59:38;5.10;;;3.60;;
62535;SDS011;63050;47.514;18.920;2023-01-23T10:04:41;7.40;;;3.80;;
62535;SDS011;63050;47.514;18.920;2023-01-23T10:10:02;6.20;;;3.80;;
62535;SDS011;63050;47.514;18.920;2023-01-23T10:20:45;6.10;;;3.70;;
62535;SDS011;63050;47.514;18.920;2023-01-23T10:25:56;5.80;;;3.70;;
62535;SDS011;63050;47.514;18.920;2023-01-23T10:30:58;6.80;;;4.20;;
62535;SDS011;63050;47.514;18.920;2023-01-23T10:36:02;6.30;;;3.90;;
62535;SDS011;63050;47.514;18.920;2023-01-23T10:41:09;6.30;;;3.70;;
62535;SDS011;63050;47.514;18.920;2023-01-23T10:46:15;5.80;;;3.90;;
62535;SDS011;63050;47.514;18.920;2023-01-23T10:51:44;5.90;;;4.40;;
62535;SDS011;63050;47.514;18.920;2023-01-23T10:56:54;6.00;;;3.90;;
62535;SDS011;63050;47.514;18.920;2023-01-23T11:07:16;7.20;;;4.00;;
62535;SDS011;63050;47.514;18.920;2023-01-23T11:12:27;5.60;;;4.20;;
62535;SDS011;63050;47.514;18.920;2023-01-23T11:17:31;8.30;;;4.40;;
62535;SDS011;63050;47.514;18.920;2023-01-23T11:22:35;6.60;;;4.20;;
62535;SDS011;63050;47.514;18.920;2023-01-23T11:27:37;6.00;;;4.40;;
62535;SDS011;63050;47.514;18.920;2023-01-23T11:32:43;8.10;;;4.70;;
62535;SDS011;63050;47.514;18.920;2023-01-23T11:37:49;7.40;;;4.00;;
62535;SDS011;63050;47.514;18.920;2023-01-23T11:42:50;9.00;;;3.80;;
62535;SDS011;63050;47.514;18.920;2023-01-23T11:53:01;5.50;;;3.40;;
62535;SDS011;63050;47.514;18.920;2023-01-23T11:58:44;6.30;;;3.80;;
62535;SDS011;63050;47.514;18.920;2023-01-23T12:09:25;7.10;;;4.00;;
62535;SDS011;63050;47.514;18.920;2023-01-23T12:14:45;4.60;;;3.10;;
62535;SDS011;63050;47.514;18.920;2023-01-23T12:20:11;5.20;;;3.50;;
62535;SDS011;63050;47.514;18.920;2023-01-23T12:31:06;5.10;;;2.90;;
62535;SDS011;63050;47.514;18.920;2023-01-23T12:41:51;6.40;;;3.00;;
62535;SDS011;63050;47.514;18.920;2023-01-23T12:47:08;5.20;;;3.50;;
62535;SDS011;63050;47.514;18.920;2023-01-23T12:57:24;6.40;;;3.20;;
62535;SDS011;63050;47.514;18.920;2023-01-23T13:07:54;5.50;;;2.90;;
62535;SDS011;63050;47.514;18.920;2023-01-23T13:12:58;7.60;;;3.00;;
62535;SDS011;63050;47.514;18.920;2023-01-23T13:17:59;4.90;;;2.90;;
62535;SDS011;63050;47.514;18.920;2023-01-23T13:38:46;5.10;;;3.30;;
62535;SDS011;63050;47.514;18.920;2023-01-23T13:50:05;6.70;;;2.80;;
62535;SDS011;63050;47.514;18.920;2023-01-23T13:54:50;4.90;;;3.30;;
62535;SDS011;63050;47.514;18.920;2023-01-23T14:00:13;5.40;;;3.00;;
62535;SDS011;63050;47.514;18.920;2023-01-23T14:05:24;5.30;;;2.80;;
62535;SDS011;63050;47.514;18.920;2023-01-23T14:10:28;4.60;;;3.00;;
62535;SDS011;63050;47.514;18.920;2023-01-23T14:15:29;9.10;;;3.70;;
62535;SDS011;63050;47.514;18.920;2023-01-23T14:20:49;5.30;;;3.50;;
62535;SDS011;63050;47.514;18.920;2023-01-23T14:25:51;5.10;;;3.50;;
62535;SDS011;63050;47.514;18.920;2023-01-23T14:30:56;4.90;;;2.60;;
62535;SDS011;63050;47.514;18.920;2023-01-23T14:35:58;3.50;;;2.70;;
62535;SDS011;63050;47.514;18.920;2023-01-23T14:41:06;4.40;;;3.20;;
62535;SDS011;63050;47.514;18.920;2023-01-23T14:46:15;7.00;;;3.80;;
62535;SDS011;63050;47.514;18.920;2023-01-23T14:51:26;5.60;;;3.00;;
62535;SDS011;63050;47.514;18.920;2023-01-23T14:56:28;5.70;;;3.60;;
62535;SDS011;63050;47.514;18.920;2023-01-23T15:01:37;4.70;;;2.90;;
62535;SDS011;63050;47.514;18.920;2023-01-23T15:06:38;5.30;;;2.90;;
62535;SDS011;63050;47.514;18.920;2023-01-23T15:11:39;5.80;;;3.40;;
62535;SDS011;63050;47.514;18.920;2023-01-23T15:16:40;7.20;;;3.00;;
62535;SDS011;63050;47.514;18.920;2023-01-23T15:21:41;4.30;;;3.20;;
62535;SDS011;63050;47.514;18.920;2023-01-23T15:31:47;4.70;;;3.50;;
62535;SDS011;63050;47.514;18.920;2023-01-23T15:36:56;5.30;;;3.30;;
62535;SDS011;63050;47.514;18.920;2023-01-23T15:42:02;5.60;;;3.70;;
62535;SDS011;63050;47.514;18.920;2023-01-23T15:47:19;8.80;;;3.50;;
62535;SDS011;63050;47.514;18.920;2023-01-23T15:57:22;7.50;;;4.80;;
62535;SDS011;63050;47.514;18.920;2023-01-23T16:02:23;9.50;;;4.40;;
62535;SDS011;63050;47.514;18.920;2023-01-23T16:07:25;5.40;;;4.10;;
62535;SDS011;63050;47.514;18.920;2023-01-23T16:12:33;7.50;;;5.10;;
62535;SDS011;63050;47.514;18.920;2023-01-23T16:17:38;5.50;;;3.30;;
62535;SDS011;63050;47.514;18.920;2023-01-23T16:22:39;5.80;;;3.50;;
62535;SDS011;63050;47.514;18.920;2023-01-23T16:27:40;6.70;;;4.40;;
62535;SDS011;63050;47.514;18.920;2023-01-23T16:32:41;8.20;;;4.20;;
62535;SDS011;63050;47.514;18.920;2023-01-23T16:37:46;7.60;;;4.40;;
62535;SDS011;63050;47.514;18.920;2023-01-23T16:42:49;6.40;;;4.70;;
62535;SDS011;63050;47.514;18.920;2023-01-23T16:47:51;5.10;;;3.90;;
62535;SDS011;63050;47.514;18.920;2023-01-23T16:53:02;6.30;;;3.70;;
62535;SDS011;63050;47.514;18.920;2023-01-23T16:58:30;8.30;;;4.60;;
62535;SDS011;63050;47.514;18.920;2023-01-23T17:03:35;6.80;;;4.60;;
62535;SDS011;63050;47.514;18.920;2023-01-23T17:08:38;6.80;;;4.70;;
62535;SDS011;63050;47.514;18.920;2023-01-23T17:13:39;9.20;;;4.60;;
62535;SDS011;63050;47.514;18.920;2023-01-23T17:18:40;8.70;;;5.10;;
62535;SDS011;63050;47.514;18.920;2023-01-23T17:23:41;7.20;;;4.90;;
62535;SDS011;63050;47.514;18.920;2023-01-23T17:28:45;8.70;;;6.80;;
62535;SDS011;63050;47.514;18.920;2023-01-23T17:33:46;8.20;;;6.80;;
62535;SDS011;63050;47.514;18.920;2023-01-23T17:38:47;9.80;;;6.20;;
62535;SDS011;63050;47.514;18.920;2023-01-23T17:43:49;6.70;;;5.30;;
62535;SDS011;63050;47.514;18.920;2023-01-23T17:48:52;6.70;;;4.80;;
62535;SDS011;63050;47.514;18.920;2023-01-23T17:53:55;7.30;;;4.80;;
62535;SDS011;63050;47.514;18.920;2023-01-23T17:58:56;7.00;;;5.40;;
62535;SDS011;63050;47.514;18.920;2023-01-23T18:03:58;6.90;;;5.80;;
62535;SDS011;63050;47.514;18.920;2023-01-23T18:08:59;9.20;;;5.90;;
62535;SDS011;63050;47.514;18.920;2023-01-23T18:19:20;8.70;;;5.20;;
62535;SDS011;63050;47.514;18.920;2023-01-23T18:24:27;6.60;;;5.10;;
62535;SDS011;63050;47.514;18.920;2023-01-23T18:29:35;8.70;;;5.30;;
62535;SDS011;63050;47.514;18.920;2023-01-23T18:46:13;8.70;;;5.60;;
62535;SDS011;63050;47.514;18.920;2023-01-23T18:51:24;6.40;;;4.30;;
62535;SDS011;63050;47.514;18.920;2023-01-23T19:02:40;6.60;;;5.10;;
62535;SDS011;63050;47.514;18.920;2023-01-23T19:07:46;8.10;;;4.80;;
62535;SDS011;63050;47.514;18.920;2023-01-23T19:12:54;8.40;;;5.40;;
62535;SDS011;63050;47.514;18.920;2023-01-23T19:23:23;7.60;;;5.40;;
62535;SDS011;63050;47.514;18.920;2023-01-23T19:28:46;7.40;;;5.20;;
62535;SDS011;63050;47.514;18.920;2023-01-23T19:33:50;6.10;;;4.80;;
62535;SDS011;63050;47.514;18.920;2023-01-23T19:38:52;9.30;;;5.00;;
62535;SDS011;63050;47.514;18.920;2023-01-23T19:44:01;6.00;;;4.70;;
62535;SDS011;63050;47.514;18.920;2023-01-23T19:49:03;5.00;;;4.10;;
62535;SDS011;63050;47.514;18.920;2023-01-23T19:54:05;6.80;;;4.50;;
62535;SDS011;63050;47.514;18.920;2023-01-23T19:59:12;6.90;;;5.20;;
62535;SDS011;63050;47.514;18.920;2023-01-23T20:04:15;6.70;;;4.60;;
62535;SDS011;63050;47.514;18.920;2023-01-23T20:09:18;6.90;;;4.70;;
62535;SDS011;63050;47.514;18.920;2023-01-23T20:14:21;7.10;;;4.70;;
62535;SDS011;63050;47.514;18.920;2023-01-23T20:19:23;7.30;;;4.40;;
62535;SDS011;63050;47.514;18.920;2023-01-23T20:24:25;8.00;;;4.30;;
62535;SDS011;63050;47.514;18.920;2023-01-23T20:29:27;6.10;;;4.30;;
62535;SDS011;63050;47.514;18.920;2023-01-23T20:34:29;7.60;;;4.20;;
62535;SDS011;63050;47.514;18.920;2023-01-23T20:39:37;6.70;;;4.20;;
62535;SDS011;63050;47.514;18.920;2023-01-23T20:44:40;6.50;;;4.10;;
62535;SDS011;63050;47.514;18.920;2023-01-23T20:49:42;5.30;;;3.60;;
62535;SDS011;63050;47.514;18.920;2023-01-23T20:54:44;6.30;;;4.20;;
62535;SDS011;63050;47.514;18.920;2023-01-23T20:59:46;5.30;;;3.90;;
62535;SDS011;63050;47.514;18.920;2023-01-23T21:04:48;8.50;;;4.20;;
62535;SDS011;63050;47.514;18.920;2023-01-23T21:09:49;5.90;;;4.10;;
62535;SDS011;63050;47.514;18.920;2023-01-23T21:14:51;9.70;;;4.50;;
62535;SDS011;63050;47.514;18.920;2023-01-23T21:19:52;6.00;;;4.10;;
62535;SDS011;63050;47.514;18.920;2023-01-23T21:24:54;5.70;;;4.10;;
62535;SDS011;63050;47.514;18.920;2023-01-23T21:29:55;6.70;;;4.60;;
62535;SDS011;63050;47.514;18.920;2023-01-23T21:34:55;7.00;;;3.60;;
62535;SDS011;63050;47.514;18.920;2023-01-23T21:39:56;6.00;;;3.70;;
62535;SDS011;63050;47.514;18.920;2023-01-23T21:44:57;5.80;;;3.90;;
62535;SDS011;63050;47.514;18.920;2023-01-23T21:49:58;5.40;;;3.80;;
62535;SDS011;63050;47.514;18.920;2023-01-23T21:54:59;7.60;;;4.30;;
62535;SDS011;63050;47.514;18.920;2023-01-23T22:00:00;5.90;;;4.10;;
62535;SDS011;63050;47.514;18.920;2023-01-23T22:05:20;8.60;;;4.80;;
62535;SDS011;63050;47.514;18.920;2023-01-23T22:10:21;8.20;;;4.10;;
62535;SDS011;63050;47.514;18.920;2023-01-23T22:15:22;6.30;;;3.70;;
62535;SDS011;63050;47.514;18.920;2023-01-23T22:20:23;5.50;;;3.90;;
62535;SDS011;63050;47.514;18.920;2023-01-23T22:25:24;6.40;;;4.10;;
62535;SDS011;63050;47.514;18.920;2023-01-23T22:30:25;5.70;;;4.10;;
62535;SDS011;63050;47.514;18.920;2023-01-23T22:35:26;6.70;;;4.10;;
62535;SDS011;63050;47.514;18.920;2023-01-23T22:40:27;5.00;;;4.10;;
62535;SDS011;63050;47.514;18.920;2023-01-23T22:45:27;7.20;;;4.10;;
62535;SDS011;63050;47.514;18.920;2023-01-23T22:50:28;7.10;;;4.80;;
62535;SDS011;63050;47.514;18.920;2023-01-23T22:55:29;6.80;;;4.40;;
62535;SDS011;63050;47.514;18.920;2023-01-23T23:00:30;7.60;;;5.00;;
62535;SDS011;63050;47.514;18.920;2023-01-23T23:05:31;6.80;;;4.10;;
62535;SDS011;63050;47.514;18.920;2023-01-23T23:10:32;10.00;;;6.50;;
62535;SDS011;63050;47.514;18.920;2023-01-23T23:15:33;13.30;;;9.20;;
62535;SDS011;63050;47.514;18.920;2023-01-23T23:20:34;11.70;;;8.00;;
62535;SDS011;63050;47.514;18.920;2023-01-23T23:25:36;10.80;;;8.10;;
62535;SDS011;63050;47.514;18.920;2023-01-23T23:30:36;9.90;;;6.50;;
62535;SDS011;63050;47.514;18.920;2023-01-23T23:35:37;9.40;;;6.30;;
62535;SDS011;63050;47.514;18.920;2023-01-23T23:40:38;11.40;;;7.80;;
62535;SDS011;63050;47.514;18.920;2023-01-23T23:45:45;10.60;;;7.60;;
62535;SDS011;63050;47.514;18.920;2023-01-23T23:50:50;9.60;;;7.20;;
62535;SDS011;63050;47.514;18.920;2023-01-23T23:55:52;8.80;;;7.00;;
